TAM1992 SBSP-SBCA
Flight info
| Callsign | TAM1992 |
|---|---|
| Flight time | 1h 22m |
| Altitude | 34000 |
| Route | ASETA UZ152 ARNIL |
| Aircraft | A320/M-SDE3FGHIRWY/LB1 |
Departure
| Time | 2026-05-05 13:16 |
|---|---|
| Airport | Congonhas–Deputado Freitas Nobre Airport (SBSP) |
Arrival
| Time | 2026-05-05 14:38 |
|---|---|
| Airport | Coronel Adalberto Mendes da Silva Airport (SBCA) |
| Time | Latitude | Longitude | Altitude | Speed | Heading |
|---|---|---|---|---|---|
| 2026-05-05 12:59 | -23.62511 | -46.65966 | 2600 ft | 0 kts | 237° |
| 2026-05-05 13:10 | -23.62503 | -46.65953 | 2600 ft | 2 kts | 237° |
| 2026-05-05 13:10 | -23.62494 | -46.65939 | 2600 ft | 2 kts | 252° |
| 2026-05-05 13:10 | -23.62497 | -46.65923 | 2601 ft | 2 kts | 325° |
| 2026-05-05 13:10 | -23.62499 | -46.65922 | 2601 ft | 0 kts | 325° |
| 2026-05-05 13:13 | -23.62498 | -46.65922 | 2601 ft | 1 kts | 325° |
| 2026-05-05 13:13 | -23.62438 | -46.65954 | 2600 ft | 14 kts | 341° |
| 2026-05-05 13:13 | -23.62341 | -46.65989 | 2600 ft | 15 kts | 338° |
| 2026-05-05 13:13 | -23.62247 | -46.66043 | 2600 ft | 15 kts | 332° |
| 2026-05-05 13:14 | -23.62161 | -46.66096 | 2599 ft | 8 kts | 328° |
| 2026-05-05 13:14 | -23.62119 | -46.66126 | 2591 ft | 7 kts | 326° |
| 2026-05-05 13:14 | -23.62081 | -46.66142 | 2594 ft | 6 kts | 353° |
| 2026-05-05 13:14 | -23.62042 | -46.66125 | 2591 ft | 7 kts | 40° |
| 2026-05-05 13:15 | -23.62043 | -46.66083 | 2596 ft | 5 kts | 130° |
| 2026-05-05 13:15 | -23.62051 | -46.66075 | 2591 ft | 0 kts | 143° |
| 2026-05-05 13:15 | -23.62228 | -46.65950 | 2599 ft | 72 kts | 148° |
| 2026-05-05 13:16 | -23.62870 | -46.65504 | 2609 ft | 143 kts | 148° |
| 2026-05-05 13:16 | -23.63825 | -46.64841 | 2960 ft | 168 kts | 146° |
| 2026-05-05 13:16 | -23.64837 | -46.64196 | 3778 ft | 172 kts | 160° |
| 2026-05-05 13:16 | -23.66045 | -46.64181 | 4210 ft | 185 kts | 207° |
| 2026-05-05 13:17 | -23.67072 | -46.65110 | 4529 ft | 202 kts | 227° |
| 2026-05-05 13:17 | -23.68062 | -46.66244 | 5063 ft | 208 kts | 228° |
| 2026-05-05 13:17 | -23.69004 | -46.67445 | 5726 ft | 209 kts | 242° |
| 2026-05-05 13:17 | -23.69521 | -46.68943 | 6196 ft | 219 kts | 254° |
| 2026-05-05 13:18 | -23.69959 | -46.70633 | 6452 ft | 244 kts | 255° |
| 2026-05-05 13:18 | -23.70440 | -46.72508 | 6825 ft | 266 kts | 254° |
| 2026-05-05 13:18 | -23.70951 | -46.74502 | 6985 ft | 275 kts | 254° |
| 2026-05-05 13:18 | -23.71466 | -46.76511 | 6997 ft | 276 kts | 253° |
| 2026-05-05 13:19 | -23.71986 | -46.78526 | 6991 ft | 276 kts | 254° |
| 2026-05-05 13:19 | -23.72511 | -46.80543 | 6980 ft | 275 kts | 254° |
| 2026-05-05 13:19 | -23.73036 | -46.82549 | 6979 ft | 275 kts | 254° |
| 2026-05-05 13:19 | -23.73561 | -46.84556 | 6978 ft | 276 kts | 255° |
| 2026-05-05 13:20 | -23.74087 | -46.86566 | 6968 ft | 275 kts | 253° |
| 2026-05-05 13:20 | -23.74601 | -46.88579 | 6955 ft | 275 kts | 258° |
| 2026-05-05 13:20 | -23.74544 | -46.90636 | 6951 ft | 274 kts | 289° |
| 2026-05-05 13:20 | -23.73524 | -46.92387 | 6955 ft | 277 kts | 310° |
| 2026-05-05 13:21 | -23.72259 | -46.93975 | 6950 ft | 278 kts | 309° |
| 2026-05-05 13:21 | -23.70994 | -46.95569 | 6948 ft | 278 kts | 309° |
| 2026-05-05 13:21 | -23.69729 | -46.97173 | 6942 ft | 279 kts | 309° |
| 2026-05-05 13:21 | -23.68461 | -46.98779 | 6943 ft | 279 kts | 309° |
| 2026-05-05 13:22 | -23.67197 | -47.00379 | 6945 ft | 279 kts | 310° |
| 2026-05-05 13:22 | -23.65931 | -47.01978 | 6932 ft | 278 kts | 310° |
| 2026-05-05 13:22 | -23.64669 | -47.03579 | 6935 ft | 278 kts | 309° |
| 2026-05-05 13:22 | -23.63411 | -47.05178 | 6934 ft | 278 kts | 309° |
| 2026-05-05 13:23 | -23.62137 | -47.06796 | 7450 ft | 283 kts | 309° |
| 2026-05-05 13:23 | -23.60849 | -47.08427 | 8328 ft | 285 kts | 309° |
| 2026-05-05 13:23 | -23.59541 | -47.10081 | 8772 ft | 291 kts | 309° |
| 2026-05-05 13:23 | -23.58215 | -47.11758 | 8906 ft | 291 kts | 309° |
| 2026-05-05 13:24 | -23.56890 | -47.13432 | 8926 ft | 291 kts | 309° |
| 2026-05-05 13:24 | -23.55563 | -47.15103 | 8938 ft | 292 kts | 309° |
| 2026-05-05 13:24 | -23.54233 | -47.16777 | 8934 ft | 292 kts | 309° |
| 2026-05-05 13:24 | -23.52924 | -47.18430 | 8927 ft | 292 kts | 309° |
| 2026-05-05 13:25 | -23.51598 | -47.20106 | 8930 ft | 292 kts | 309° |
| 2026-05-05 13:25 | -23.50256 | -47.21804 | 8930 ft | 292 kts | 310° |
| 2026-05-05 13:25 | -23.48932 | -47.23480 | 8929 ft | 292 kts | 309° |
| 2026-05-05 13:25 | -23.47615 | -47.25138 | 9158 ft | 297 kts | 310° |
| 2026-05-05 13:26 | -23.46237 | -47.26875 | 9935 ft | 301 kts | 310° |
| 2026-05-05 13:26 | -23.44887 | -47.28575 | 10174 ft | 301 kts | 309° |
| 2026-05-05 13:26 | -23.43493 | -47.30334 | 10244 ft | 320 kts | 310° |
| 2026-05-05 13:26 | -23.41986 | -47.32237 | 10240 ft | 334 kts | 309° |
| 2026-05-05 13:27 | -23.40445 | -47.34183 | 10241 ft | 337 kts | 310° |
| 2026-05-05 13:27 | -23.38900 | -47.36128 | 10246 ft | 342 kts | 310° |
| 2026-05-05 13:27 | -23.37364 | -47.38059 | 10243 ft | 340 kts | 310° |
| 2026-05-05 13:27 | -23.35815 | -47.40002 | 10242 ft | 340 kts | 310° |
| 2026-05-05 13:28 | -23.34282 | -47.41921 | 10238 ft | 336 kts | 310° |
| 2026-05-05 13:28 | -23.32749 | -47.43846 | 10321 ft | 330 kts | 310° |
| 2026-05-05 13:28 | -23.31247 | -47.45736 | 10790 ft | 339 kts | 310° |
| 2026-05-05 13:28 | -23.29672 | -47.47719 | 11150 ft | 352 kts | 310° |
| 2026-05-05 13:29 | -23.28070 | -47.49734 | 11225 ft | 353 kts | 310° |
| 2026-05-05 13:29 | -23.26447 | -47.51772 | 11650 ft | 358 kts | 310° |
| 2026-05-05 13:29 | -23.24809 | -47.53824 | 12417 ft | 360 kts | 310° |
| 2026-05-05 13:29 | -23.23160 | -47.55893 | 13114 ft | 364 kts | 310° |
| 2026-05-05 13:30 | -23.21492 | -47.57987 | 13781 ft | 368 kts | 309° |
| 2026-05-05 13:30 | -23.20015 | -47.60262 | 14367 ft | 371 kts | 296° |
| 2026-05-05 13:30 | -23.19068 | -47.62868 | 14936 ft | 372 kts | 282° |
| 2026-05-05 13:30 | -23.18714 | -47.65642 | 15540 ft | 371 kts | 268° |
| 2026-05-05 13:31 | -23.18961 | -47.68424 | 16140 ft | 369 kts | 255° |
| 2026-05-05 13:31 | -23.19592 | -47.71128 | 16746 ft | 370 kts | 253° |
| 2026-05-05 13:31 | -23.20238 | -47.73848 | 17354 ft | 372 kts | 253° |
| 2026-05-05 13:31 | -23.20663 | -47.75652 | 17750 ft | 373 kts | 253° |
| 2026-05-05 13:32 | -23.21523 | -47.79325 | 18547 ft | 376 kts | 253° |
| 2026-05-05 13:32 | -23.21951 | -47.81157 | 18888 ft | 378 kts | 253° |
| 2026-05-05 13:32 | -23.22598 | -47.83933 | 19382 ft | 380 kts | 253° |
| 2026-05-05 13:32 | -23.23250 | -47.86728 | 19877 ft | 383 kts | 253° |
| 2026-05-05 13:33 | -23.23909 | -47.89546 | 20369 ft | 386 kts | 253° |
| 2026-05-05 13:33 | -23.24575 | -47.92397 | 20866 ft | 389 kts | 253° |
| 2026-05-05 13:33 | -23.25240 | -47.95259 | 21357 ft | 392 kts | 254° |
| 2026-05-05 13:33 | -23.25912 | -47.98146 | 21837 ft | 395 kts | 254° |
| 2026-05-05 13:34 | -23.26590 | -48.01053 | 22331 ft | 398 kts | 254° |
| 2026-05-05 13:34 | -23.27275 | -48.03989 | 22801 ft | 401 kts | 254° |
| 2026-05-05 13:34 | -23.27960 | -48.06940 | 23269 ft | 404 kts | 254° |
| 2026-05-05 13:34 | -23.28618 | -48.09919 | 23734 ft | 408 kts | 258° |
| 2026-05-05 13:35 | -23.29072 | -48.12982 | 24133 ft | 410 kts | 259° |
| 2026-05-05 13:35 | -23.29521 | -48.16057 | 24540 ft | 412 kts | 259° |
| 2026-05-05 13:35 | -23.29974 | -48.19134 | 24939 ft | 413 kts | 259° |
| 2026-05-05 13:35 | -23.30433 | -48.22233 | 25347 ft | 414 kts | 259° |
| 2026-05-05 13:36 | -23.30892 | -48.25331 | 25744 ft | 416 kts | 259° |
| 2026-05-05 13:36 | -23.31342 | -48.28401 | 26123 ft | 417 kts | 259° |
| 2026-05-05 13:36 | -23.31800 | -48.31520 | 26512 ft | 418 kts | 259° |
| 2026-05-05 13:36 | -23.32256 | -48.34656 | 26888 ft | 420 kts | 259° |
| 2026-05-05 13:37 | -23.32710 | -48.37787 | 27265 ft | 421 kts | 259° |
| 2026-05-05 13:37 | -23.33233 | -48.40924 | 27630 ft | 421 kts | 253° |
| 2026-05-05 13:37 | -23.34163 | -48.43939 | 27975 ft | 420 kts | 246° |
| 2026-05-05 13:37 | -23.35263 | -48.46886 | 28337 ft | 421 kts | 246° |
| 2026-05-05 13:38 | -23.36369 | -48.49846 | 28669 ft | 423 kts | 246° |
| 2026-05-05 13:38 | -23.37475 | -48.52818 | 29015 ft | 424 kts | 246° |
| 2026-05-05 13:38 | -23.38583 | -48.55800 | 29344 ft | 425 kts | 246° |
| 2026-05-05 13:38 | -23.39688 | -48.58782 | 29654 ft | 426 kts | 246° |
| 2026-05-05 13:39 | -23.40798 | -48.61781 | 29981 ft | 427 kts | 246° |
| 2026-05-05 13:39 | -23.41908 | -48.64790 | 30278 ft | 429 kts | 246° |
| 2026-05-05 13:39 | -23.43020 | -48.67810 | 30525 ft | 430 kts | 246° |
| 2026-05-05 13:39 | -23.44137 | -48.70836 | 30760 ft | 431 kts | 246° |
| 2026-05-05 13:40 | -23.45254 | -48.73863 | 30983 ft | 431 kts | 246° |
| 2026-05-05 13:40 | -23.46373 | -48.76901 | 31204 ft | 432 kts | 246° |
| 2026-05-05 13:40 | -23.47489 | -48.79935 | 31518 ft | 430 kts | 246° |
| 2026-05-05 13:40 | -23.48600 | -48.82955 | 31832 ft | 428 kts | 246° |
| 2026-05-05 13:41 | -23.49703 | -48.85962 | 32174 ft | 426 kts | 246° |
| 2026-05-05 13:41 | -23.50801 | -48.88957 | 32500 ft | 425 kts | 246° |
| 2026-05-05 13:41 | -23.51899 | -48.91939 | 32824 ft | 423 kts | 246° |
| 2026-05-05 13:41 | -23.52993 | -48.94911 | 33140 ft | 421 kts | 246° |
| 2026-05-05 13:42 | -23.54066 | -48.97826 | 33461 ft | 420 kts | 246° |
| 2026-05-05 13:42 | -23.55150 | -49.00776 | 33778 ft | 418 kts | 246° |
| 2026-05-05 13:42 | -23.56229 | -49.03715 | 34090 ft | 417 kts | 246° |
| 2026-05-05 13:42 | -23.57303 | -49.06641 | 34211 ft | 414 kts | 246° |
| 2026-05-05 13:43 | -23.59418 | -49.12418 | 34227 ft | 408 kts | 246° |
| 2026-05-05 13:43 | -23.61517 | -49.18168 | 34230 ft | 408 kts | 246° |
| 2026-05-05 13:44 | -23.63641 | -49.23993 | 34230 ft | 419 kts | 247° |
| 2026-05-05 13:44 | -23.65806 | -49.29952 | 34226 ft | 425 kts | 247° |
| 2026-05-05 13:45 | -23.67992 | -49.35953 | 34224 ft | 426 kts | 247° |
| 2026-05-05 13:45 | -23.70179 | -49.41962 | 34233 ft | 426 kts | 247° |
| 2026-05-05 13:46 | -23.72357 | -49.47969 | 34227 ft | 426 kts | 247° |
| 2026-05-05 13:46 | -23.74530 | -49.53991 | 34224 ft | 426 kts | 247° |
| 2026-05-05 13:47 | -23.76703 | -49.59998 | 34219 ft | 426 kts | 247° |
| 2026-05-05 13:47 | -23.78876 | -49.66020 | 34222 ft | 426 kts | 247° |
| 2026-05-05 13:48 | -23.81041 | -49.72032 | 34221 ft | 426 kts | 247° |
| 2026-05-05 13:48 | -23.83193 | -49.78016 | 34219 ft | 426 kts | 247° |
| 2026-05-05 13:49 | -23.85356 | -49.84033 | 34218 ft | 426 kts | 247° |
| 2026-05-05 13:49 | -23.87512 | -49.90056 | 34222 ft | 426 kts | 247° |
| 2026-05-05 13:50 | -23.89666 | -49.96084 | 34219 ft | 426 kts | 247° |
| 2026-05-05 13:50 | -23.91813 | -50.02111 | 34224 ft | 426 kts | 247° |
| 2026-05-05 13:51 | -23.93956 | -50.08141 | 34220 ft | 426 kts | 247° |
| 2026-05-05 13:51 | -23.96104 | -50.14175 | 34221 ft | 426 kts | 247° |
| 2026-05-05 13:52 | -23.98254 | -50.20213 | 34223 ft | 426 kts | 247° |
| 2026-05-05 13:52 | -24.00400 | -50.26246 | 34219 ft | 426 kts | 247° |
| 2026-05-05 13:53 | -24.02539 | -50.32279 | 34227 ft | 426 kts | 248° |
| 2026-05-05 13:53 | -24.04670 | -50.38325 | 34224 ft | 426 kts | 248° |
| 2026-05-05 13:54 | -24.06783 | -50.44331 | 34224 ft | 426 kts | 248° |
| 2026-05-05 13:54 | -24.08913 | -50.50391 | 34225 ft | 426 kts | 248° |
| 2026-05-05 13:55 | -24.11041 | -50.56434 | 34220 ft | 426 kts | 248° |
| 2026-05-05 13:55 | -24.13166 | -50.62489 | 34224 ft | 426 kts | 248° |
| 2026-05-05 13:56 | -24.15285 | -50.68541 | 34224 ft | 426 kts | 248° |
| 2026-05-05 13:56 | -24.17405 | -50.74594 | 34227 ft | 426 kts | 248° |
| 2026-05-05 13:57 | -24.19520 | -50.80646 | 34223 ft | 426 kts | 248° |
| 2026-05-05 13:57 | -24.21637 | -50.86707 | 34220 ft | 426 kts | 248° |
| 2026-05-05 13:58 | -24.23749 | -50.92766 | 34226 ft | 425 kts | 248° |
| 2026-05-05 13:58 | -24.25849 | -50.98793 | 34222 ft | 425 kts | 248° |
| 2026-05-05 13:59 | -24.29001 | -51.07886 | 34228 ft | 425 kts | 248° |
| 2026-05-05 14:00 | -24.31810 | -51.15992 | 34226 ft | 425 kts | 248° |
| 2026-05-05 14:00 | -24.34233 | -51.23036 | 34218 ft | 425 kts | 248° |
| 2026-05-05 14:01 | -24.36322 | -51.29100 | 34224 ft | 424 kts | 248° |
| 2026-05-05 14:01 | -24.38407 | -51.35155 | 34235 ft | 424 kts | 248° |
| 2026-05-05 14:02 | -24.40481 | -51.41211 | 34222 ft | 424 kts | 248° |
| 2026-05-05 14:02 | -24.42559 | -51.47262 | 34233 ft | 424 kts | 248° |
| 2026-05-05 14:03 | -24.44637 | -51.53306 | 34222 ft | 423 kts | 248° |
| 2026-05-05 14:03 | -24.46705 | -51.59355 | 34237 ft | 423 kts | 248° |
| 2026-05-05 14:04 | -24.48752 | -51.65371 | 34230 ft | 423 kts | 248° |
| 2026-05-05 14:04 | -24.50816 | -51.71416 | 34233 ft | 422 kts | 248° |
| 2026-05-05 14:05 | -24.52874 | -51.77452 | 34235 ft | 422 kts | 248° |
| 2026-05-05 14:05 | -24.54931 | -51.83489 | 34235 ft | 422 kts | 248° |
| 2026-05-05 14:06 | -24.56986 | -51.89530 | 34231 ft | 422 kts | 248° |
| 2026-05-05 14:06 | -24.59021 | -51.95564 | 34228 ft | 422 kts | 248° |
| 2026-05-05 14:07 | -24.61058 | -52.01611 | 34230 ft | 422 kts | 248° |
| 2026-05-05 14:07 | -24.63101 | -52.07656 | 34229 ft | 422 kts | 248° |
| 2026-05-05 14:08 | -24.65147 | -52.13710 | 34204 ft | 422 kts | 248° |
| 2026-05-05 14:08 | -24.66161 | -52.16728 | 33943 ft | 422 kts | 248° |
| 2026-05-05 14:08 | -24.67173 | -52.19758 | 33685 ft | 422 kts | 248° |
| 2026-05-05 14:09 | -24.68182 | -52.22779 | 33415 ft | 422 kts | 248° |
| 2026-05-05 14:09 | -24.69196 | -52.25806 | 33157 ft | 423 kts | 248° |
| 2026-05-05 14:09 | -24.70214 | -52.28845 | 32903 ft | 424 kts | 248° |
| 2026-05-05 14:09 | -24.71235 | -52.31895 | 32645 ft | 425 kts | 248° |
| 2026-05-05 14:10 | -24.72256 | -52.34945 | 32181 ft | 424 kts | 249° |
| 2026-05-05 14:10 | -24.73278 | -52.38005 | 31172 ft | 427 kts | 249° |
| 2026-05-05 14:10 | -24.74289 | -52.41035 | 30237 ft | 428 kts | 249° |
| 2026-05-05 14:10 | -24.75321 | -52.44119 | 29062 ft | 431 kts | 249° |
| 2026-05-05 14:11 | -24.76359 | -52.47220 | 28044 ft | 432 kts | 249° |
| 2026-05-05 14:11 | -24.77397 | -52.50329 | 26963 ft | 434 kts | 250° |
| 2026-05-05 14:11 | -24.78440 | -52.53464 | 25844 ft | 438 kts | 250° |
| 2026-05-05 14:11 | -24.79493 | -52.56630 | 24764 ft | 441 kts | 250° |
| 2026-05-05 14:12 | -24.80546 | -52.59811 | 23707 ft | 444 kts | 250° |
| 2026-05-05 14:12 | -24.81604 | -52.63013 | 22545 ft | 447 kts | 250° |
| 2026-05-05 14:12 | -24.82583 | -52.66243 | 21753 ft | 442 kts | 255° |
| 2026-05-05 14:12 | -24.83121 | -52.69564 | 20897 ft | 440 kts | 264° |
| 2026-05-05 14:13 | -24.83176 | -52.72933 | 20048 ft | 440 kts | 271° |
| 2026-05-05 14:13 | -24.83077 | -52.76297 | 19219 ft | 439 kts | 271° |
| 2026-05-05 14:13 | -24.82978 | -52.79653 | 18394 ft | 439 kts | 271° |
| 2026-05-05 14:13 | -24.82876 | -52.83002 | 17530 ft | 437 kts | 271° |
| 2026-05-05 14:14 | -24.82774 | -52.86326 | 16773 ft | 433 kts | 271° |
| 2026-05-05 14:14 | -24.82673 | -52.89655 | 16028 ft | 431 kts | 271° |
| 2026-05-05 14:14 | -24.82578 | -52.92940 | 15308 ft | 429 kts | 271° |
| 2026-05-05 14:14 | -24.82482 | -52.96219 | 14606 ft | 427 kts | 272° |
| 2026-05-05 14:15 | -24.82382 | -52.99440 | 13928 ft | 426 kts | 272° |
| 2026-05-05 14:15 | -24.82281 | -53.02693 | 13204 ft | 424 kts | 272° |
| 2026-05-05 14:15 | -24.82180 | -53.05918 | 12550 ft | 419 kts | 273° |
| 2026-05-05 14:15 | -24.82079 | -53.09101 | 11893 ft | 414 kts | 273° |
| 2026-05-05 14:16 | -24.81981 | -53.12231 | 11632 ft | 400 kts | 273° |
| 2026-05-05 14:16 | -24.81890 | -53.15231 | 11504 ft | 383 kts | 273° |
| 2026-05-05 14:16 | -24.81802 | -53.18097 | 11376 ft | 367 kts | 274° |
| 2026-05-05 14:16 | -24.81715 | -53.20850 | 11267 ft | 353 kts | 274° |
| 2026-05-05 14:17 | -24.81627 | -53.23498 | 11156 ft | 339 kts | 274° |
| 2026-05-05 14:17 | -24.81539 | -53.26037 | 11036 ft | 326 kts | 274° |
| 2026-05-05 14:17 | -24.81455 | -53.28488 | 10921 ft | 315 kts | 274° |
| 2026-05-05 14:17 | -24.81379 | -53.30862 | 10809 ft | 305 kts | 274° |
| 2026-05-05 14:18 | -24.81308 | -53.33149 | 10694 ft | 289 kts | 274° |
| 2026-05-05 14:18 | -24.81241 | -53.35282 | 10575 ft | 270 kts | 275° |
| 2026-05-05 14:18 | -24.81197 | -53.36639 | 10508 ft | 264 kts | 275° |
| 2026-05-05 14:18 | -24.81132 | -53.38611 | 10387 ft | 250 kts | 275° |
| 2026-05-05 14:19 | -24.81072 | -53.40479 | 10166 ft | 240 kts | 275° |
| 2026-05-05 14:19 | -24.81012 | -53.42298 | 9799 ft | 236 kts | 275° |
| 2026-05-05 14:19 | -24.80951 | -53.44097 | 9476 ft | 235 kts | 275° |
| 2026-05-05 14:19 | -24.80889 | -53.45894 | 9174 ft | 235 kts | 276° |
| 2026-05-05 14:20 | -24.80805 | -53.48261 | 8844 ft | 232 kts | 275° |
| 2026-05-05 14:20 | -24.80741 | -53.50046 | 8577 ft | 233 kts | 276° |
| 2026-05-05 14:20 | -24.80699 | -53.51244 | 8425 ft | 231 kts | 276° |
| 2026-05-05 14:20 | -24.80641 | -53.52981 | 8149 ft | 228 kts | 276° |
| 2026-05-05 14:21 | -24.80647 | -53.54744 | 7788 ft | 228 kts | 265° |
| 2026-05-05 14:21 | -24.81161 | -53.56385 | 7467 ft | 228 kts | 243° |
| 2026-05-05 14:21 | -24.82160 | -53.57696 | 7177 ft | 226 kts | 228° |
| 2026-05-05 14:21 | -24.83270 | -53.58903 | 6881 ft | 223 kts | 229° |
| 2026-05-05 14:22 | -24.84725 | -53.60501 | 6487 ft | 220 kts | 229° |
| 2026-05-05 14:22 | -24.85444 | -53.61291 | 6330 ft | 220 kts | 229° |
| 2026-05-05 14:22 | -24.86611 | -53.62383 | 6043 ft | 223 kts | 208° |
| 2026-05-05 14:22 | -24.88126 | -53.62611 | 5647 ft | 225 kts | 165° |
| 2026-05-05 14:23 | -24.89428 | -53.61753 | 5295 ft | 216 kts | 132° |
| 2026-05-05 14:23 | -24.90455 | -53.60593 | 4981 ft | 207 kts | 130° |
| 2026-05-05 14:23 | -24.91450 | -53.59502 | 4702 ft | 197 kts | 132° |
| 2026-05-05 14:23 | -24.92406 | -53.58462 | 4460 ft | 189 kts | 131° |
| 2026-05-05 14:24 | -24.93299 | -53.57491 | 4244 ft | 174 kts | 130° |
| 2026-05-05 14:24 | -24.94145 | -53.56573 | 4018 ft | 168 kts | 130° |
| 2026-05-05 14:24 | -24.94978 | -53.55687 | 3765 ft | 166 kts | 130° |
| 2026-05-05 14:24 | -24.95785 | -53.54797 | 3462 ft | 162 kts | 129° |
| 2026-05-05 14:25 | -24.96560 | -53.53937 | 3263 ft | 156 kts | 128° |
| 2026-05-05 14:25 | -24.97271 | -53.53061 | 2999 ft | 150 kts | 128° |
| 2026-05-05 14:25 | -24.98011 | -53.52269 | 2855 ft | 148 kts | 134° |
| 2026-05-05 14:25 | -24.98786 | -53.51514 | 2720 ft | 149 kts | 127° |
| 2026-05-05 14:26 | -24.99506 | -53.50705 | 2522 ft | 148 kts | 127° |
| 2026-05-05 14:26 | -25.00192 | -53.49958 | 2484 ft | 129 kts | 126° |
| 2026-05-05 14:26 | -25.00921 | -53.49174 | 2794 ft | 164 kts | 130° |
| 2026-05-05 14:26 | -25.01767 | -53.48222 | 3544 ft | 175 kts | 129° |
| 2026-05-05 14:27 | -25.02598 | -53.47224 | 4432 ft | 175 kts | 128° |
| 2026-05-05 14:27 | -25.03464 | -53.46188 | 4823 ft | 196 kts | 136° |
| 2026-05-05 14:27 | -25.04733 | -53.45512 | 5095 ft | 220 kts | 174° |
| 2026-05-05 14:27 | -25.06272 | -53.45904 | 5378 ft | 237 kts | 218° |
| 2026-05-05 14:28 | -25.07218 | -53.47331 | 5900 ft | 238 kts | 257° |
| 2026-05-05 14:28 | -25.07213 | -53.49092 | 6022 ft | 226 kts | 292° |
| 2026-05-05 14:28 | -25.06530 | -53.50634 | 6044 ft | 223 kts | 304° |
| 2026-05-05 14:28 | -25.05672 | -53.52062 | 6045 ft | 224 kts | 307° |
| 2026-05-05 14:29 | -25.04991 | -53.53597 | 6037 ft | 227 kts | 284° |
| 2026-05-05 14:29 | -25.05055 | -53.55347 | 6035 ft | 234 kts | 255° |
| 2026-05-05 14:29 | -25.05934 | -53.56861 | 6035 ft | 242 kts | 223° |
| 2026-05-05 14:29 | -25.07446 | -53.57689 | 6036 ft | 249 kts | 190° |
| 2026-05-05 14:30 | -25.09160 | -53.57503 | 6031 ft | 252 kts | 156° |
| 2026-05-05 14:30 | -25.10523 | -53.56350 | 6039 ft | 251 kts | 127° |
| 2026-05-05 14:30 | -25.11620 | -53.54851 | 6030 ft | 250 kts | 127° |
| 2026-05-05 14:30 | -25.12721 | -53.53369 | 6026 ft | 250 kts | 128° |
| 2026-05-05 14:31 | -25.13828 | -53.51887 | 6021 ft | 250 kts | 128° |
| 2026-05-05 14:31 | -25.14939 | -53.50404 | 6010 ft | 251 kts | 128° |
| 2026-05-05 14:31 | -25.16053 | -53.48920 | 6020 ft | 252 kts | 127° |
| 2026-05-05 14:31 | -25.17171 | -53.47433 | 6003 ft | 251 kts | 128° |
| 2026-05-05 14:32 | -25.18182 | -53.45939 | 5994 ft | 232 kts | 111° |
| 2026-05-05 14:32 | -25.18489 | -53.44275 | 5997 ft | 217 kts | 79° |
| 2026-05-05 14:32 | -25.18024 | -53.42782 | 6013 ft | 199 kts | 50° |
| 2026-05-05 14:32 | -25.17115 | -53.41694 | 5902 ft | 187 kts | 40° |
| 2026-05-05 14:33 | -25.16224 | -53.40720 | 5787 ft | 178 kts | 40° |
| 2026-05-05 14:33 | -25.15376 | -53.39792 | 5720 ft | 166 kts | 40° |
| 2026-05-05 14:33 | -25.14581 | -53.38916 | 5684 ft | 157 kts | 41° |
| 2026-05-05 14:33 | -25.13797 | -53.38123 | 5626 ft | 150 kts | 27° |
| 2026-05-05 14:34 | -25.12870 | -53.37709 | 5533 ft | 142 kts | 7° |
| 2026-05-05 14:34 | -25.11885 | -53.37725 | 5411 ft | 144 kts | 347° |
| 2026-05-05 14:34 | -25.10970 | -53.38168 | 5242 ft | 145 kts | 326° |
| 2026-05-05 14:34 | -25.10232 | -53.38933 | 5070 ft | 146 kts | 319° |
| 2026-05-05 14:35 | -25.09518 | -53.39720 | 4863 ft | 144 kts | 318° |
| 2026-05-05 14:35 | -25.08811 | -53.40497 | 4700 ft | 143 kts | 318° |
| 2026-05-05 14:35 | -25.08103 | -53.41273 | 4581 ft | 145 kts | 318° |
| 2026-05-05 14:35 | -25.07381 | -53.42066 | 4354 ft | 146 kts | 319° |
| 2026-05-05 14:36 | -25.06667 | -53.42839 | 4158 ft | 145 kts | 316° |
| 2026-05-05 14:36 | -25.05921 | -53.43642 | 3933 ft | 152 kts | 315° |
| 2026-05-05 14:36 | -25.05182 | -53.44479 | 3679 ft | 152 kts | 316° |
| 2026-05-05 14:36 | -25.04461 | -53.45319 | 3324 ft | 151 kts | 318° |
| 2026-05-05 14:37 | -25.03733 | -53.46108 | 3078 ft | 145 kts | 320° |
| 2026-05-05 14:37 | -25.03021 | -53.46897 | 2943 ft | 145 kts | 321° |
| 2026-05-05 14:37 | -25.02300 | -53.47666 | 2856 ft | 146 kts | 319° |
| 2026-05-05 14:37 | -25.01578 | -53.48439 | 2736 ft | 146 kts | 320° |
| 2026-05-05 14:38 | -25.00851 | -53.49222 | 2585 ft | 145 kts | 317° |
| 2026-05-05 14:38 | -25.00176 | -53.49957 | 2476 ft | 122 kts | 316° |
| 2026-05-05 14:38 | -24.99768 | -53.50405 | 2485 ft | 50 kts | 314° |
| 2026-05-05 14:38 | -24.99580 | -53.50610 | 2489 ft | 25 kts | 314° |
| 2026-05-05 14:39 | -24.99495 | -53.50686 | 2490 ft | 9 kts | 347° |
| 2026-05-05 14:39 | -24.99447 | -53.50719 | 2490 ft | 3 kts | 293° |
| 2026-05-05 14:39 | -24.99445 | -53.50730 | 2491 ft | 0 kts | 279° |
| 2026-05-05 14:39 | -24.99462 | -53.50721 | 2491 ft | 5 kts | 125° |
| 2026-05-05 14:40 | -24.99503 | -53.50688 | 2490 ft | 8 kts | 146° |
| 2026-05-05 14:40 | -24.99545 | -53.50655 | 2489 ft | 7 kts | 139° |
| 2026-05-05 14:40 | -24.99577 | -53.50618 | 2489 ft | 6 kts | 131° |
| 2026-05-05 14:40 | -24.99603 | -53.50586 | 2489 ft | 5 kts | 132° |
| 2026-05-05 14:41 | -24.99624 | -53.50561 | 2488 ft | 4 kts | 134° |
| 2026-05-05 14:41 | -24.99641 | -53.50543 | 2488 ft | 3 kts | 135° |
| 2026-05-05 14:41 | -24.99675 | -53.50505 | 2488 ft | 17 kts | 136° |
| 2026-05-05 14:41 | -24.99773 | -53.50399 | 2485 ft | 22 kts | 135° |
| 2026-05-05 14:42 | -24.99887 | -53.50273 | 2483 ft | 24 kts | 134° |
| 2026-05-05 14:42 | -25.00001 | -53.50148 | 2479 ft | 18 kts | 136° |
| 2026-05-05 14:42 | -25.00059 | -53.50093 | 2477 ft | 8 kts | 159° |
| 2026-05-05 14:42 | -25.00102 | -53.50114 | 2477 ft | 7 kts | 223° |
| 2026-05-05 14:43 | -25.00128 | -53.50152 | 2477 ft | 6 kts | 243° |
| 2026-05-05 14:43 | -25.00151 | -53.50181 | 2477 ft | 4 kts | 225° |